sensor_id;sensor_type;location;lat;lon;timestamp;P1;durP1;ratioP1;P2;durP2;ratioP2
8929;SDS011;4500;49.074;9.110;2024-02-15T00:00:21;1.80;;;1.80;;
8929;SDS011;4500;49.074;9.110;2024-02-15T00:02:49;2.70;;;2.60;;
8929;SDS011;4500;49.074;9.110;2024-02-15T00:05:16;3.40;;;3.23;;
8929;SDS011;4500;49.074;9.110;2024-02-15T00:07:44;3.27;;;3.13;;
8929;SDS011;4500;49.074;9.110;2024-02-15T00:10:15;4.17;;;3.97;;
8929;SDS011;4500;49.074;9.110;2024-02-15T00:12:42;3.90;;;3.70;;
8929;SDS011;4500;49.074;9.110;2024-02-15T00:15:10;3.70;;;3.50;;
8929;SDS011;4500;49.074;9.110;2024-02-15T00:17:37;2.40;;;2.30;;
8929;SDS011;4500;49.074;9.110;2024-02-15T00:20:05;2.30;;;2.20;;
8929;SDS011;4500;49.074;9.110;2024-02-15T00:22:36;3.33;;;3.20;;
8929;SDS011;4500;49.074;9.110;2024-02-15T00:25:04;1.60;;;1.53;;
8929;SDS011;4500;49.074;9.110;2024-02-15T00:27:32;1.67;;;1.60;;
8929;SDS011;4500;49.074;9.110;2024-02-15T00:30:01;0.70;;;0.70;;
8929;SDS011;4500;49.074;9.110;2024-02-15T00:32:30;0.90;;;0.90;;
8929;SDS011;4500;49.074;9.110;2024-02-15T00:34:58;0.70;;;0.70;;
8929;SDS011;4500;49.074;9.110;2024-02-15T00:37:26;1.00;;;1.00;;
8929;SDS011;4500;49.074;9.110;2024-02-15T00:39:54;0.80;;;0.80;;
8929;SDS011;4500;49.074;9.110;2024-02-15T00:42:21;2.00;;;1.90;;
8929;SDS011;4500;49.074;9.110;2024-02-15T00:44:49;3.57;;;3.43;;
8929;SDS011;4500;49.074;9.110;2024-02-15T00:47:16;3.87;;;3.67;;
8929;SDS011;4500;49.074;9.110;2024-02-15T00:49:47;3.50;;;3.37;;
8929;SDS011;4500;49.074;9.110;2024-02-15T00:52:16;3.70;;;3.50;;
8929;SDS011;4500;49.074;9.110;2024-02-15T00:54:45;3.20;;;3.10;;
8929;SDS011;4500;49.074;9.110;2024-02-15T00:57:13;3.80;;;3.60;;
8929;SDS011;4500;49.074;9.110;2024-02-15T00:59:41;3.90;;;3.70;;
8929;SDS011;4500;49.074;9.110;2024-02-15T01:02:08;4.23;;;4.03;;
8929;SDS011;4500;49.074;9.110;2024-02-15T01:04:36;6.50;;;6.00;;
8929;SDS011;4500;49.074;9.110;2024-02-15T01:07:03;1.53;;;1.47;;
8929;SDS011;4500;49.074;9.110;2024-02-15T01:09:31;0.90;;;0.90;;
8929;SDS011;4500;49.074;9.110;2024-02-15T01:11:58;0.83;;;0.83;;
8929;SDS011;4500;49.074;9.110;2024-02-15T01:14:26;0.93;;;0.93;;
8929;SDS011;4500;49.074;9.110;2024-02-15T01:16:57;0.67;;;0.67;;
8929;SDS011;4500;49.074;9.110;2024-02-15T01:19:25;1.70;;;1.60;;
8929;SDS011;4500;49.074;9.110;2024-02-15T01:21:53;0.60;;;0.60;;
8929;SDS011;4500;49.074;9.110;2024-02-15T01:24:20;2.17;;;2.07;;
8929;SDS011;4500;49.074;9.110;2024-02-15T01:26:48;3.67;;;3.53;;
8929;SDS011;4500;49.074;9.110;2024-02-15T01:29:16;3.57;;;3.40;;
8929;SDS011;4500;49.074;9.110;2024-02-15T01:31:43;4.30;;;4.10;;
8929;SDS011;4500;49.074;9.110;2024-02-15T01:34:11;4.20;;;4.00;;
8929;SDS011;4500;49.074;9.110;2024-02-15T01:36:38;4.07;;;3.87;;
8929;SDS011;4500;49.074;9.110;2024-02-15T01:39:06;3.77;;;3.60;;
8929;SDS011;4500;49.074;9.110;2024-02-15T01:41:34;1.57;;;1.50;;
8929;SDS011;4500;49.074;9.110;2024-02-15T01:44:02;0.90;;;0.90;;
8929;SDS011;4500;49.074;9.110;2024-02-15T01:46:30;1.00;;;1.00;;
8929;SDS011;4500;49.074;9.110;2024-02-15T01:48:58;0.83;;;0.83;;
8929;SDS011;4500;49.074;9.110;2024-02-15T01:51:26;0.90;;;0.90;;
8929;SDS011;4500;49.074;9.110;2024-02-15T01:53:54;0.90;;;0.90;;
8929;SDS011;4500;49.074;9.110;2024-02-15T01:56:22;0.90;;;0.90;;
8929;SDS011;4500;49.074;9.110;2024-02-15T01:58:50;2.20;;;2.10;;
8929;SDS011;4500;49.074;9.110;2024-02-15T02:01:18;4.00;;;3.80;;
8929;SDS011;4500;49.074;9.110;2024-02-15T02:03:45;3.27;;;3.17;;
8929;SDS011;4500;49.074;9.110;2024-02-15T02:06:13;4.00;;;3.80;;
8929;SDS011;4500;49.074;9.110;2024-02-15T02:08:41;4.70;;;4.50;;
8929;SDS011;4500;49.074;9.110;2024-02-15T02:11:08;2.50;;;2.40;;
8929;SDS011;4500;49.074;9.110;2024-02-15T02:13:36;3.73;;;3.53;;
8929;SDS011;4500;49.074;9.110;2024-02-15T02:16:04;1.63;;;1.57;;
8929;SDS011;4500;49.074;9.110;2024-02-15T02:18:31;1.67;;;1.57;;
8929;SDS011;4500;49.074;9.110;2024-02-15T02:20:59;1.00;;;1.00;;
8929;SDS011;4500;49.074;9.110;2024-02-15T02:23:30;0.90;;;0.90;;
8929;SDS011;4500;49.074;9.110;2024-02-15T02:25:59;1.00;;;1.00;;
8929;SDS011;4500;49.074;9.110;2024-02-15T02:28:27;0.93;;;0.93;;
8929;SDS011;4500;49.074;9.110;2024-02-15T02:30:54;0.70;;;0.70;;
8929;SDS011;4500;49.074;9.110;2024-02-15T02:33:23;0.73;;;0.73;;
8929;SDS011;4500;49.074;9.110;2024-02-15T02:35:51;1.57;;;1.50;;
8929;SDS011;4500;49.074;9.110;2024-02-15T02:38:19;3.37;;;3.27;;
8929;SDS011;4500;49.074;9.110;2024-02-15T02:40:46;3.73;;;3.53;;
8929;SDS011;4500;49.074;9.110;2024-02-15T02:43:13;4.03;;;3.83;;
8929;SDS011;4500;49.074;9.110;2024-02-15T02:45:41;4.50;;;4.30;;
8929;SDS011;4500;49.074;9.110;2024-02-15T02:48:09;5.00;;;4.80;;
8929;SDS011;4500;49.074;9.110;2024-02-15T02:50:37;2.83;;;2.73;;
8929;SDS011;4500;49.074;9.110;2024-02-15T02:53:04;1.57;;;1.50;;
8929;SDS011;4500;49.074;9.110;2024-02-15T02:55:32;0.97;;;0.97;;
8929;SDS011;4500;49.074;9.110;2024-02-15T02:57:59;0.87;;;0.87;;
8929;SDS011;4500;49.074;9.110;2024-02-15T03:00:26;0.60;;;0.60;;
8929;SDS011;4500;49.074;9.110;2024-02-15T03:02:54;0.90;;;0.90;;
8929;SDS011;4500;49.074;9.110;2024-02-15T03:05:23;0.90;;;0.90;;
8929;SDS011;4500;49.074;9.110;2024-02-15T03:07:51;1.60;;;1.60;;
8929;SDS011;4500;49.074;9.110;2024-02-15T03:10:18;3.30;;;3.20;;
8929;SDS011;4500;49.074;9.110;2024-02-15T03:12:45;4.20;;;4.00;;
8929;SDS011;4500;49.074;9.110;2024-02-15T03:15:16;4.03;;;3.83;;
8929;SDS011;4500;49.074;9.110;2024-02-15T03:17:46;3.83;;;3.63;;
8929;SDS011;4500;49.074;9.110;2024-02-15T03:20:14;4.10;;;3.90;;
8929;SDS011;4500;49.074;9.110;2024-02-15T03:22:52;2.87;;;2.77;;
8929;SDS011;4500;49.074;9.110;2024-02-15T03:25:25;1.20;;;1.20;;
8929;SDS011;4500;49.074;9.110;2024-02-15T03:27:53;0.70;;;0.70;;
8929;SDS011;4500;49.074;9.110;2024-02-15T03:30:23;0.83;;;0.83;;
8929;SDS011;4500;49.074;9.110;2024-02-15T03:32:51;1.33;;;1.33;;
8929;SDS011;4500;49.074;9.110;2024-02-15T03:35:20;2.33;;;2.23;;
8929;SDS011;4500;49.074;9.110;2024-02-15T03:37:49;2.97;;;2.87;;
8929;SDS011;4500;49.074;9.110;2024-02-15T03:40:18;4.10;;;3.90;;
8929;SDS011;4500;49.074;9.110;2024-02-15T03:42:46;4.40;;;4.20;;
8929;SDS011;4500;49.074;9.110;2024-02-15T03:45:14;3.80;;;3.60;;
8929;SDS011;4500;49.074;9.110;2024-02-15T03:47:42;4.70;;;4.50;;
8929;SDS011;4500;49.074;9.110;2024-02-15T03:50:10;3.63;;;3.43;;
8929;SDS011;4500;49.074;9.110;2024-02-15T03:52:38;4.03;;;3.83;;
8929;SDS011;4500;49.074;9.110;2024-02-15T03:55:06;3.50;;;3.33;;
8929;SDS011;4500;49.074;9.110;2024-02-15T03:57:34;1.10;;;1.07;;
8929;SDS011;4500;49.074;9.110;2024-02-15T04:00:02;1.23;;;1.20;;
8929;SDS011;4500;49.074;9.110;2024-02-15T04:02:31;0.90;;;0.90;;
8929;SDS011;4500;49.074;9.110;2024-02-15T04:04:58;0.73;;;0.73;;
8929;SDS011;4500;49.074;9.110;2024-02-15T04:07:26;0.70;;;0.70;;
8929;SDS011;4500;49.074;9.110;2024-02-15T04:09:54;0.70;;;0.70;;
8929;SDS011;4500;49.074;9.110;2024-02-15T04:12:21;1.93;;;1.83;;
8929;SDS011;4500;49.074;9.110;2024-02-15T04:14:49;3.50;;;3.40;;
8929;SDS011;4500;49.074;9.110;2024-02-15T04:17:17;3.80;;;3.60;;
8929;SDS011;4500;49.074;9.110;2024-02-15T04:19:48;4.00;;;3.80;;
8929;SDS011;4500;49.074;9.110;2024-02-15T04:22:20;2.20;;;2.10;;
8929;SDS011;4500;49.074;9.110;2024-02-15T04:24:48;4.20;;;4.00;;
8929;SDS011;4500;49.074;9.110;2024-02-15T04:27:16;4.00;;;3.80;;
8929;SDS011;4500;49.074;9.110;2024-02-15T04:29:47;4.40;;;4.20;;
8929;SDS011;4500;49.074;9.110;2024-02-15T04:32:16;3.70;;;3.50;;
8929;SDS011;4500;49.074;9.110;2024-02-15T04:34:45;4.13;;;3.93;;
8929;SDS011;4500;49.074;9.110;2024-02-15T04:37:13;4.03;;;3.83;;
8929;SDS011;4500;49.074;9.110;2024-02-15T04:39:43;4.20;;;4.00;;
8929;SDS011;4500;49.074;9.110;2024-02-15T04:42:10;4.33;;;4.13;;
8929;SDS011;4500;49.074;9.110;2024-02-15T04:44:38;4.67;;;4.47;;
8929;SDS011;4500;49.074;9.110;2024-02-15T04:47:06;3.67;;;3.50;;
8929;SDS011;4500;49.074;9.110;2024-02-15T04:49:33;1.33;;;1.27;;
8929;SDS011;4500;49.074;9.110;2024-02-15T04:52:02;0.87;;;0.87;;
8929;SDS011;4500;49.074;9.110;2024-02-15T04:54:31;0.70;;;0.70;;
8929;SDS011;4500;49.074;9.110;2024-02-15T04:56:59;0.90;;;0.90;;
8929;SDS011;4500;49.074;9.110;2024-02-15T04:59:27;1.00;;;1.00;;
8929;SDS011;4500;49.074;9.110;2024-02-15T05:01:55;1.00;;;1.00;;
8929;SDS011;4500;49.074;9.110;2024-02-15T05:04:25;0.70;;;0.70;;
8929;SDS011;4500;49.074;9.110;2024-02-15T05:06:52;1.30;;;1.30;;
8929;SDS011;4500;49.074;9.110;2024-02-15T05:09:20;2.80;;;2.70;;
8929;SDS011;4500;49.074;9.110;2024-02-15T05:11:49;4.10;;;3.93;;
8929;SDS011;4500;49.074;9.110;2024-02-15T05:14:17;4.00;;;3.80;;
8929;SDS011;4500;49.074;9.110;2024-02-15T05:16:46;3.90;;;3.70;;
8929;SDS011;4500;49.074;9.110;2024-02-15T05:19:15;3.93;;;3.73;;
8929;SDS011;4500;49.074;9.110;2024-02-15T05:21:43;3.90;;;3.70;;
8929;SDS011;4500;49.074;9.110;2024-02-15T05:24:16;5.40;;;5.17;;
8929;SDS011;4500;49.074;9.110;2024-02-15T05:26:44;3.87;;;3.67;;
8929;SDS011;4500;49.074;9.110;2024-02-15T05:29:19;3.53;;;3.40;;
8929;SDS011;4500;49.074;9.110;2024-02-15T05:31:47;4.23;;;4.03;;
8929;SDS011;4500;49.074;9.110;2024-02-15T05:34:17;3.67;;;3.47;;
8929;SDS011;4500;49.074;9.110;2024-02-15T05:36:45;3.63;;;3.43;;
8929;SDS011;4500;49.074;9.110;2024-02-15T05:39:14;4.03;;;3.83;;
8929;SDS011;4500;49.074;9.110;2024-02-15T05:41:42;5.13;;;4.93;;
8929;SDS011;4500;49.074;9.110;2024-02-15T05:44:09;4.63;;;4.43;;
8929;SDS011;4500;49.074;9.110;2024-02-15T05:46:37;3.00;;;2.90;;
8929;SDS011;4500;49.074;9.110;2024-02-15T05:49:06;3.63;;;3.47;;
8929;SDS011;4500;49.074;9.110;2024-02-15T05:51:35;1.53;;;1.47;;
8929;SDS011;4500;49.074;9.110;2024-02-15T05:54:02;1.40;;;1.37;;
8929;SDS011;4500;49.074;9.110;2024-02-15T05:56:30;1.00;;;1.00;;
8929;SDS011;4500;49.074;9.110;2024-02-15T05:58:57;1.00;;;1.00;;
8929;SDS011;4500;49.074;9.110;2024-02-15T06:01:25;0.80;;;0.80;;
8929;SDS011;4500;49.074;9.110;2024-02-15T06:03:52;1.07;;;1.07;;
8929;SDS011;4500;49.074;9.110;2024-02-15T06:06:22;1.10;;;1.10;;
8929;SDS011;4500;49.074;9.110;2024-02-15T06:08:50;2.93;;;2.83;;
8929;SDS011;4500;49.074;9.110;2024-02-15T06:11:20;4.27;;;4.07;;
8929;SDS011;4500;49.074;9.110;2024-02-15T06:13:47;4.03;;;3.83;;
8929;SDS011;4500;49.074;9.110;2024-02-15T06:16:15;3.80;;;3.60;;
8929;SDS011;4500;49.074;9.110;2024-02-15T06:18:42;4.43;;;4.23;;
8929;SDS011;4500;49.074;9.110;2024-02-15T06:21:10;4.70;;;4.50;;
8929;SDS011;4500;49.074;9.110;2024-02-15T06:23:38;2.30;;;2.20;;
8929;SDS011;4500;49.074;9.110;2024-02-15T06:26:05;2.57;;;2.47;;
8929;SDS011;4500;49.074;9.110;2024-02-15T06:28:33;1.30;;;1.27;;
8929;SDS011;4500;49.074;9.110;2024-02-15T06:31:19;3.03;;;2.93;;
8929;SDS011;4500;49.074;9.110;2024-02-15T06:34:05;1.80;;;1.73;;
8929;SDS011;4500;49.074;9.110;2024-02-15T06:36:55;2.10;;;2.00;;
8929;SDS011;4500;49.074;9.110;2024-02-15T06:39:41;4.73;;;4.53;;
8929;SDS011;4500;49.074;9.110;2024-02-15T06:42:11;5.70;;;5.33;;
8929;SDS011;4500;49.074;9.110;2024-02-15T06:44:42;4.17;;;3.97;;
8929;SDS011;4500;49.074;9.110;2024-02-15T06:47:11;4.03;;;3.83;;
8929;SDS011;4500;49.074;9.110;2024-02-15T06:49:39;4.20;;;4.00;;
8929;SDS011;4500;49.074;9.110;2024-02-15T06:52:07;3.50;;;3.40;;
8929;SDS011;4500;49.074;9.110;2024-02-15T06:54:35;1.63;;;1.57;;
8929;SDS011;4500;49.074;9.110;2024-02-15T06:57:04;1.57;;;1.50;;
8929;SDS011;4500;49.074;9.110;2024-02-15T06:59:32;0.70;;;0.70;;
8929;SDS011;4500;49.074;9.110;2024-02-15T07:02:06;3.53;;;3.37;;
8929;SDS011;4500;49.074;9.110;2024-02-15T07:04:35;1.53;;;1.47;;
8929;SDS011;4500;49.074;9.110;2024-02-15T07:07:03;1.77;;;1.70;;
8929;SDS011;4500;49.074;9.110;2024-02-15T07:09:31;0.80;;;0.80;;
8929;SDS011;4500;49.074;9.110;2024-02-15T07:11:59;0.77;;;0.77;;
8929;SDS011;4500;49.074;9.110;2024-02-15T07:14:27;0.70;;;0.70;;
8929;SDS011;4500;49.074;9.110;2024-02-15T07:16:55;0.70;;;0.70;;
8929;SDS011;4500;49.074;9.110;2024-02-15T07:19:25;0.70;;;0.70;;
8929;SDS011;4500;49.074;9.110;2024-02-15T07:21:54;0.80;;;0.80;;
8929;SDS011;4500;49.074;9.110;2024-02-15T07:24:23;0.60;;;0.60;;
8929;SDS011;4500;49.074;9.110;2024-02-15T07:26:54;1.00;;;1.00;;
8929;SDS011;4500;49.074;9.110;2024-02-15T07:29:25;0.70;;;0.70;;
8929;SDS011;4500;49.074;9.110;2024-02-15T07:31:54;1.07;;;1.07;;
8929;SDS011;4500;49.074;9.110;2024-02-15T07:34:21;1.73;;;1.63;;
8929;SDS011;4500;49.074;9.110;2024-02-15T07:36:49;3.03;;;2.93;;
8929;SDS011;4500;49.074;9.110;2024-02-15T07:39:18;3.70;;;3.53;;
8929;SDS011;4500;49.074;9.110;2024-02-15T07:41:52;1.17;;;1.17;;
8929;SDS011;4500;49.074;9.110;2024-02-15T07:44:19;2.93;;;2.83;;
8929;SDS011;4500;49.074;9.110;2024-02-15T07:46:47;3.50;;;3.33;;
8929;SDS011;4500;49.074;9.110;2024-02-15T07:49:15;3.40;;;3.27;;
8929;SDS011;4500;49.074;9.110;2024-02-15T07:51:44;3.80;;;3.60;;
8929;SDS011;4500;49.074;9.110;2024-02-15T07:54:18;3.87;;;3.70;;
8929;SDS011;4500;49.074;9.110;2024-02-15T07:56:47;3.83;;;3.63;;
8929;SDS011;4500;49.074;9.110;2024-02-15T07:59:15;3.80;;;3.60;;
8929;SDS011;4500;49.074;9.110;2024-02-15T08:01:43;3.27;;;3.17;;
8929;SDS011;4500;49.074;9.110;2024-02-15T08:04:12;5.13;;;4.93;;
8929;SDS011;4500;49.074;9.110;2024-02-15T08:06:43;3.83;;;3.63;;
8929;SDS011;4500;49.074;9.110;2024-02-15T08:09:11;4.57;;;4.37;;
8929;SDS011;4500;49.074;9.110;2024-02-15T08:11:40;4.03;;;3.83;;
8929;SDS011;4500;49.074;9.110;2024-02-15T08:14:08;2.60;;;2.50;;
8929;SDS011;4500;49.074;9.110;2024-02-15T08:16:39;4.07;;;3.87;;
8929;SDS011;4500;49.074;9.110;2024-02-15T08:19:08;4.33;;;4.13;;
8929;SDS011;4500;49.074;9.110;2024-02-15T08:21:36;2.23;;;2.13;;
8929;SDS011;4500;49.074;9.110;2024-02-15T08:24:05;2.30;;;2.23;;
8929;SDS011;4500;49.074;9.110;2024-02-15T08:26:33;2.30;;;2.17;;
8929;SDS011;4500;49.074;9.110;2024-02-15T08:29:02;1.63;;;1.53;;
8929;SDS011;4500;49.074;9.110;2024-02-15T08:31:30;0.90;;;0.90;;
8929;SDS011;4500;49.074;9.110;2024-02-15T08:33:58;2.20;;;2.10;;
8929;SDS011;4500;49.074;9.110;2024-02-15T08:36:29;0.80;;;0.80;;
8929;SDS011;4500;49.074;9.110;2024-02-15T08:38:57;0.67;;;0.67;;
8929;SDS011;4500;49.074;9.110;2024-02-15T08:41:25;0.67;;;0.67;;
8929;SDS011;4500;49.074;9.110;2024-02-15T08:43:53;0.70;;;0.70;;
8929;SDS011;4500;49.074;9.110;2024-02-15T08:46:23;0.97;;;0.97;;
8929;SDS011;4500;49.074;9.110;2024-02-15T08:48:53;0.80;;;0.80;;
8929;SDS011;4500;49.074;9.110;2024-02-15T08:51:21;2.07;;;1.97;;
8929;SDS011;4500;49.074;9.110;2024-02-15T08:53:50;2.20;;;2.10;;
8929;SDS011;4500;49.074;9.110;2024-02-15T08:56:18;3.20;;;3.10;;
8929;SDS011;4500;49.074;9.110;2024-02-15T08:58:45;3.80;;;3.60;;
8929;SDS011;4500;49.074;9.110;2024-02-15T09:01:14;3.60;;;3.43;;
8929;SDS011;4500;49.074;9.110;2024-02-15T09:03:41;3.80;;;3.60;;
8929;SDS011;4500;49.074;9.110;2024-02-15T09:06:09;4.37;;;4.17;;
8929;SDS011;4500;49.074;9.110;2024-02-15T09:08:37;2.00;;;1.90;;
8929;SDS011;4500;49.074;9.110;2024-02-15T09:11:05;1.63;;;1.57;;
8929;SDS011;4500;49.074;9.110;2024-02-15T09:13:34;1.20;;;1.17;;
8929;SDS011;4500;49.074;9.110;2024-02-15T09:16:04;1.40;;;1.33;;
8929;SDS011;4500;49.074;9.110;2024-02-15T09:18:31;0.70;;;0.70;;
8929;SDS011;4500;49.074;9.110;2024-02-15T09:21:00;0.70;;;0.70;;
8929;SDS011;4500;49.074;9.110;2024-02-15T09:23:28;0.70;;;0.70;;
8929;SDS011;4500;49.074;9.110;2024-02-15T09:25:55;0.70;;;0.70;;
8929;SDS011;4500;49.074;9.110;2024-02-15T09:28:23;0.73;;;0.73;;
8929;SDS011;4500;49.074;9.110;2024-02-15T09:30:50;2.40;;;2.30;;
8929;SDS011;4500;49.074;9.110;2024-02-15T09:33:21;3.67;;;3.50;;
8929;SDS011;4500;49.074;9.110;2024-02-15T09:35:48;3.43;;;3.33;;
8929;SDS011;4500;49.074;9.110;2024-02-15T09:38:16;3.20;;;3.10;;
8929;SDS011;4500;49.074;9.110;2024-02-15T09:40:48;3.30;;;3.20;;
8929;SDS011;4500;49.074;9.110;2024-02-15T09:43:16;3.80;;;3.60;;
8929;SDS011;4500;49.074;9.110;2024-02-15T09:45:43;3.00;;;2.90;;
8929;SDS011;4500;49.074;9.110;2024-02-15T09:48:11;3.47;;;3.33;;
8929;SDS011;4500;49.074;9.110;2024-02-15T09:50:41;4.10;;;3.90;;
8929;SDS011;4500;49.074;9.110;2024-02-15T09:53:20;2.70;;;2.60;;
8929;SDS011;4500;49.074;9.110;2024-02-15T09:55:49;2.83;;;2.73;;
8929;SDS011;4500;49.074;9.110;2024-02-15T09:58:16;3.83;;;3.63;;
8929;SDS011;4500;49.074;9.110;2024-02-15T10:00:44;3.13;;;3.03;;
8929;SDS011;4500;49.074;9.110;2024-02-15T10:03:13;4.97;;;4.73;;
8929;SDS011;4500;49.074;9.110;2024-02-15T10:05:47;2.63;;;2.53;;
8929;SDS011;4500;49.074;9.110;2024-02-15T10:08:16;3.20;;;3.10;;
8929;SDS011;4500;49.074;9.110;2024-02-15T10:10:44;3.20;;;3.10;;
8929;SDS011;4500;49.074;9.110;2024-02-15T10:13:14;3.00;;;2.90;;
8929;SDS011;4500;49.074;9.110;2024-02-15T10:15:42;3.90;;;3.70;;
8929;SDS011;4500;49.074;9.110;2024-02-15T10:18:11;4.60;;;4.40;;
8929;SDS011;4500;49.074;9.110;2024-02-15T10:20:40;3.67;;;3.47;;
8929;SDS011;4500;49.074;9.110;2024-02-15T10:23:12;4.13;;;3.93;;
8929;SDS011;4500;49.074;9.110;2024-02-15T10:25:45;2.80;;;2.70;;
8929;SDS011;4500;49.074;9.110;2024-02-15T10:28:14;2.63;;;2.53;;
8929;SDS011;4500;49.074;9.110;2024-02-15T10:30:50;1.97;;;1.87;;
8929;SDS011;4500;49.074;9.110;2024-02-15T10:33:21;2.40;;;2.30;;
8929;SDS011;4500;49.074;9.110;2024-02-15T10:36:04;0.70;;;0.70;;
8929;SDS011;4500;49.074;9.110;2024-02-15T10:38:34;1.13;;;1.10;;
8929;SDS011;4500;49.074;9.110;2024-02-15T10:41:03;0.73;;;0.70;;
8929;SDS011;4500;49.074;9.110;2024-02-15T10:43:34;0.80;;;0.80;;
8929;SDS011;4500;49.074;9.110;2024-02-15T10:46:04;1.10;;;1.07;;
8929;SDS011;4500;49.074;9.110;2024-02-15T10:48:36;2.27;;;2.17;;
8929;SDS011;4500;49.074;9.110;2024-02-15T10:51:08;3.87;;;3.57;;
8929;SDS011;4500;49.074;9.110;2024-02-15T10:53:39;1.70;;;1.60;;
8929;SDS011;4500;49.074;9.110;2024-02-15T10:56:18;2.40;;;2.30;;
8929;SDS011;4500;49.074;9.110;2024-02-15T10:58:50;1.83;;;1.73;;
8929;SDS011;4500;49.074;9.110;2024-02-15T11:01:18;2.57;;;2.47;;
8929;SDS011;4500;49.074;9.110;2024-02-15T11:03:49;2.50;;;2.40;;
8929;SDS011;4500;49.074;9.110;2024-02-15T11:06:20;2.50;;;2.40;;
8929;SDS011;4500;49.074;9.110;2024-02-15T11:08:48;2.80;;;2.70;;
8929;SDS011;4500;49.074;9.110;2024-02-15T11:11:16;2.73;;;2.63;;
8929;SDS011;4500;49.074;9.110;2024-02-15T11:13:45;2.37;;;2.27;;
8929;SDS011;4500;49.074;9.110;2024-02-15T11:19:10;3.47;;;3.33;;
8929;SDS011;4500;49.074;9.110;2024-02-15T11:24:48;2.87;;;2.77;;
8929;SDS011;4500;49.074;9.110;2024-02-15T11:27:27;2.53;;;2.43;;
8929;SDS011;4500;49.074;9.110;2024-02-15T11:29:56;0.60;;;0.60;;
8929;SDS011;4500;49.074;9.110;2024-02-15T11:32:37;1.93;;;1.83;;
8929;SDS011;4500;49.074;9.110;2024-02-15T11:35:20;2.40;;;2.30;;
8929;SDS011;4500;49.074;9.110;2024-02-15T11:37:54;0.80;;;0.80;;
8929;SDS011;4500;49.074;9.110;2024-02-15T11:40:26;2.93;;;2.73;;
8929;SDS011;4500;49.074;9.110;2024-02-15T11:42:56;0.60;;;0.60;;
8929;SDS011;4500;49.074;9.110;2024-02-15T11:45:27;0.80;;;0.80;;
8929;SDS011;4500;49.074;9.110;2024-02-15T11:48:01;0.77;;;0.77;;
8929;SDS011;4500;49.074;9.110;2024-02-15T11:50:30;0.73;;;0.73;;
8929;SDS011;4500;49.074;9.110;2024-02-15T11:53:04;0.90;;;0.90;;
8929;SDS011;4500;49.074;9.110;2024-02-15T11:55:37;2.00;;;1.90;;
8929;SDS011;4500;49.074;9.110;2024-02-15T11:58:07;1.57;;;1.50;;
8929;SDS011;4500;49.074;9.110;2024-02-15T12:00:35;1.10;;;1.07;;
8929;SDS011;4500;49.074;9.110;2024-02-15T12:03:22;1.10;;;1.10;;
8929;SDS011;4500;49.074;9.110;2024-02-15T12:06:25;0.60;;;0.60;;
8929;SDS011;4500;49.074;9.110;2024-02-15T12:09:13;2.40;;;2.30;;
8929;SDS011;4500;49.074;9.110;2024-02-15T12:12:04;1.00;;;1.00;;
8929;SDS011;4500;49.074;9.110;2024-02-15T12:15:00;1.47;;;1.47;;
8929;SDS011;4500;49.074;9.110;2024-02-15T12:17:49;2.07;;;1.97;;
8929;SDS011;4500;49.074;9.110;2024-02-15T12:20:35;1.10;;;1.07;;
8929;SDS011;4500;49.074;9.110;2024-02-15T12:23:03;0.67;;;0.67;;
8929;SDS011;4500;49.074;9.110;2024-02-15T12:25:34;0.93;;;0.93;;
8929;SDS011;4500;49.074;9.110;2024-02-15T12:28:02;0.70;;;0.70;;
8929;SDS011;4500;49.074;9.110;2024-02-15T12:30:33;0.70;;;0.70;;
8929;SDS011;4500;49.074;9.110;2024-02-15T12:33:11;1.10;;;1.07;;
8929;SDS011;4500;49.074;9.110;2024-02-15T12:35:40;4.03;;;3.83;;
8929;SDS011;4500;49.074;9.110;2024-02-15T12:38:09;4.07;;;3.87;;
8929;SDS011;4500;49.074;9.110;2024-02-15T12:40:44;3.10;;;3.00;;
8929;SDS011;4500;49.074;9.110;2024-02-15T12:43:14;2.93;;;2.83;;
8929;SDS011;4500;49.074;9.110;2024-02-15T12:45:42;3.17;;;3.07;;
8929;SDS011;4500;49.074;9.110;2024-02-15T12:48:10;3.33;;;3.23;;
8929;SDS011;4500;49.074;9.110;2024-02-15T12:50:38;2.50;;;2.40;;
8929;SDS011;4500;49.074;9.110;2024-02-15T12:53:07;2.43;;;2.33;;
8929;SDS011;4500;49.074;9.110;2024-02-15T12:55:36;1.23;;;1.20;;
8929;SDS011;4500;49.074;9.110;2024-02-15T12:58:05;1.03;;;1.00;;
8929;SDS011;4500;49.074;9.110;2024-02-15T13:00:40;3.60;;;3.47;;
8929;SDS011;4500;49.074;9.110;2024-02-15T13:03:08;1.87;;;1.77;;
8929;SDS011;4500;49.074;9.110;2024-02-15T13:05:42;3.83;;;3.63;;
8929;SDS011;4500;49.074;9.110;2024-02-15T13:08:11;2.70;;;2.60;;
8929;SDS011;4500;49.074;9.110;2024-02-15T13:10:41;2.83;;;2.73;;
8929;SDS011;4500;49.074;9.110;2024-02-15T13:13:09;2.97;;;2.87;;
8929;SDS011;4500;49.074;9.110;2024-02-15T13:15:37;2.30;;;2.20;;
8929;SDS011;4500;49.074;9.110;2024-02-15T13:18:05;1.23;;;1.20;;
8929;SDS011;4500;49.074;9.110;2024-02-15T13:20:37;2.37;;;2.27;;
8929;SDS011;4500;49.074;9.110;2024-02-15T13:23:06;1.00;;;0.97;;
8929;SDS011;4500;49.074;9.110;2024-02-15T13:25:36;2.30;;;2.20;;
8929;SDS011;4500;49.074;9.110;2024-02-15T13:28:07;2.87;;;2.77;;
8929;SDS011;4500;49.074;9.110;2024-02-15T13:30:37;2.37;;;2.27;;
8929;SDS011;4500;49.074;9.110;2024-02-15T13:33:04;1.10;;;1.07;;
8929;SDS011;4500;49.074;9.110;2024-02-15T13:35:32;0.90;;;0.90;;
8929;SDS011;4500;49.074;9.110;2024-02-15T13:38:01;0.70;;;0.70;;
8929;SDS011;4500;49.074;9.110;2024-02-15T13:40:29;0.80;;;0.80;;
8929;SDS011;4500;49.074;9.110;2024-02-15T13:43:00;0.60;;;0.60;;
8929;SDS011;4500;49.074;9.110;2024-02-15T13:45:33;1.00;;;1.00;;
8929;SDS011;4500;49.074;9.110;2024-02-15T13:48:04;1.13;;;1.10;;
8929;SDS011;4500;49.074;9.110;2024-02-15T13:50:33;1.33;;;1.30;;
8929;SDS011;4500;49.074;9.110;2024-02-15T13:53:03;0.57;;;0.57;;
8929;SDS011;4500;49.074;9.110;2024-02-15T13:55:31;1.13;;;1.13;;
8929;SDS011;4500;49.074;9.110;2024-02-15T13:57:59;0.60;;;0.60;;
8929;SDS011;4500;49.074;9.110;2024-02-15T14:00:27;0.80;;;0.80;;
8929;SDS011;4500;49.074;9.110;2024-02-15T14:03:01;0.70;;;0.70;;
8929;SDS011;4500;49.074;9.110;2024-02-15T14:05:30;0.97;;;0.97;;
8929;SDS011;4500;49.074;9.110;2024-02-15T14:07:58;0.63;;;0.63;;
8929;SDS011;4500;49.074;9.110;2024-02-15T14:10:30;1.37;;;1.37;;
8929;SDS011;4500;49.074;9.110;2024-02-15T14:13:01;0.70;;;0.70;;
8929;SDS011;4500;49.074;9.110;2024-02-15T14:15:32;1.00;;;1.00;;
8929;SDS011;4500;49.074;9.110;2024-02-15T14:18:10;2.83;;;2.73;;
8929;SDS011;4500;49.074;9.110;2024-02-15T14:20:44;2.70;;;2.60;;
8929;SDS011;4500;49.074;9.110;2024-02-15T14:23:14;2.70;;;2.60;;
8929;SDS011;4500;49.074;9.110;2024-02-15T14:25:42;3.00;;;2.90;;
8929;SDS011;4500;49.074;9.110;2024-02-15T14:28:12;3.43;;;3.33;;
8929;SDS011;4500;49.074;9.110;2024-02-15T14:30:42;3.57;;;3.40;;
8929;SDS011;4500;49.074;9.110;2024-02-15T14:33:28;1.03;;;1.03;;
8929;SDS011;4500;49.074;9.110;2024-02-15T14:36:01;0.70;;;0.70;;
8929;SDS011;4500;49.074;9.110;2024-02-15T14:38:31;0.90;;;0.90;;
8929;SDS011;4500;49.074;9.110;2024-02-15T14:41:01;0.70;;;0.70;;
8929;SDS011;4500;49.074;9.110;2024-02-15T14:43:34;1.23;;;1.20;;
8929;SDS011;4500;49.074;9.110;2024-02-15T14:46:01;0.83;;;0.83;;
8929;SDS011;4500;49.074;9.110;2024-02-15T14:48:32;0.77;;;0.77;;
8929;SDS011;4500;49.074;9.110;2024-02-15T14:51:00;0.70;;;0.70;;
8929;SDS011;4500;49.074;9.110;2024-02-15T14:53:29;0.93;;;0.93;;
8929;SDS011;4500;49.074;9.110;2024-02-15T14:55:57;0.70;;;0.70;;
8929;SDS011;4500;49.074;9.110;2024-02-15T14:58:24;0.63;;;0.63;;
8929;SDS011;4500;49.074;9.110;2024-02-15T15:00:52;1.30;;;1.30;;
8929;SDS011;4500;49.074;9.110;2024-02-15T15:03:22;1.13;;;1.13;;
8929;SDS011;4500;49.074;9.110;2024-02-15T15:05:53;0.70;;;0.70;;
8929;SDS011;4500;49.074;9.110;2024-02-15T15:08:39;2.53;;;2.43;;
8929;SDS011;4500;49.074;9.110;2024-02-15T15:11:25;7.47;;;4.57;;
8929;SDS011;4500;49.074;9.110;2024-02-15T15:14:10;2.90;;;2.80;;
8929;SDS011;4500;49.074;9.110;2024-02-15T15:16:38;2.00;;;1.90;;
8929;SDS011;4500;49.074;9.110;2024-02-15T15:19:05;1.30;;;1.27;;
8929;SDS011;4500;49.074;9.110;2024-02-15T15:21:34;1.30;;;1.27;;
8929;SDS011;4500;49.074;9.110;2024-02-15T15:24:02;0.67;;;0.67;;
8929;SDS011;4500;49.074;9.110;2024-02-15T15:26:30;0.60;;;0.60;;
8929;SDS011;4500;49.074;9.110;2024-02-15T15:28:58;0.60;;;0.60;;
8929;SDS011;4500;49.074;9.110;2024-02-15T15:31:26;0.70;;;0.70;;
8929;SDS011;4500;49.074;9.110;2024-02-15T15:33:54;0.60;;;0.60;;
8929;SDS011;4500;49.074;9.110;2024-02-15T15:36:22;0.80;;;0.80;;